sensor_id;sensor_type;location;lat;lon;timestamp;temperature;humidity
65207;SHT31;58477;48.072;11.970;2022-12-20T00:02:07;0.24;92.93
65207;SHT31;58477;48.072;11.970;2022-12-20T00:04:32;0.00;93.13
65207;SHT31;58477;48.072;11.970;2022-12-20T00:06:58;0.18;92.80
65207;SHT31;58477;48.072;11.970;2022-12-20T00:09:23;0.04;93.53
65207;SHT31;58477;48.072;11.970;2022-12-20T00:11:49;-0.10;93.80
65207;SHT31;58477;48.072;11.970;2022-12-20T00:14:15;-0.07;94.16
65207;SHT31;58477;48.072;11.970;2022-12-20T00:16:41;0.04;93.72
65207;SHT31;58477;48.072;11.970;2022-12-20T00:19:09;0.18;93.46
65207;SHT31;58477;48.072;11.970;2022-12-20T00:21:35;0.00;93.57
65207;SHT31;58477;48.072;11.970;2022-12-20T00:24:01;0.18;93.14
65207;SHT31;58477;48.072;11.970;2022-12-20T00:26:29;0.03;93.47
65207;SHT31;58477;48.072;11.970;2022-12-20T00:28:55;-0.11;94.23
65207;SHT31;58477;48.072;11.970;2022-12-20T00:31:22;-0.13;94.12
65207;SHT31;58477;48.072;11.970;2022-12-20T00:33:50;0.05;94.01
65207;SHT31;58477;48.072;11.970;2022-12-20T00:36:17;-0.05;93.78
65207;SHT31;58477;48.072;11.970;2022-12-20T00:38:46;-0.16;93.82
65207;SHT31;58477;48.072;11.970;2022-12-20T00:41:14;-0.23;94.34
65207;SHT31;58477;48.072;11.970;2022-12-20T00:43:41;-0.30;94.60
65207;SHT31;58477;48.072;11.970;2022-12-20T00:46:13;-0.05;94.00
65207;SHT31;58477;48.072;11.970;2022-12-20T00:48:39;0.04;93.44
65207;SHT31;58477;48.072;11.970;2022-12-20T00:51:08;0.08;93.02
65207;SHT31;58477;48.072;11.970;2022-12-20T00:53:35;-0.02;92.93
65207;SHT31;58477;48.072;11.970;2022-12-20T00:56:01;-0.16;93.86
65207;SHT31;58477;48.072;11.970;2022-12-20T00:58:27;-0.21;93.74
65207;SHT31;58477;48.072;11.970;2022-12-20T01:00:53;-0.37;93.88
65207;SHT31;58477;48.072;11.970;2022-12-20T01:03:19;-0.21;93.87
65207;SHT31;58477;48.072;11.970;2022-12-20T01:05:51;-0.20;93.73
65207;SHT31;58477;48.072;11.970;2022-12-20T01:08:18;-0.02;93.42
65207;SHT31;58477;48.072;11.970;2022-12-20T01:10:44;0.00;92.96
65207;SHT31;58477;48.072;11.970;2022-12-20T01:13:09;-0.10;93.26
65207;SHT31;58477;48.072;11.970;2022-12-20T01:15:35;-0.37;94.36
65207;SHT31;58477;48.072;11.970;2022-12-20T01:18:00;-0.42;94.80
65207;SHT31;58477;48.072;11.970;2022-12-20T01:20:26;-0.10;93.92
65207;SHT31;58477;48.072;11.970;2022-12-20T01:22:52;0.01;92.99
65207;SHT31;58477;48.072;11.970;2022-12-20T01:25:17;0.05;92.98
65207;SHT31;58477;48.072;11.970;2022-12-20T01:27:43;-0.10;92.97
65207;SHT31;58477;48.072;11.970;2022-12-20T01:30:09;-0.13;93.31
65207;SHT31;58477;48.072;11.970;2022-12-20T01:32:35;-0.19;93.91
65207;SHT31;58477;48.072;11.970;2022-12-20T01:35:00;-0.23;93.86
65207;SHT31;58477;48.072;11.970;2022-12-20T01:37:25;-0.37;93.99
65207;SHT31;58477;48.072;11.970;2022-12-20T01:39:51;-0.42;94.49
65207;SHT31;58477;48.072;11.970;2022-12-20T01:42:16;-0.37;94.78
65207;SHT31;58477;48.072;11.970;2022-12-20T01:47:08;-0.23;94.54
65207;SHT31;58477;48.072;11.970;2022-12-20T01:49:43;-0.16;94.19
65207;SHT31;58477;48.072;11.970;2022-12-20T01:52:17;-0.17;93.77
65207;SHT31;58477;48.072;11.970;2022-12-20T01:55:01;-0.05;93.60
65207;SHT31;58477;48.072;11.970;2022-12-20T01:58:01;-0.07;93.69
65207;SHT31;58477;48.072;11.970;2022-12-20T02:00:25;-0.19;93.63
65207;SHT31;58477;48.072;11.970;2022-12-20T02:02:51;-0.19;94.01
65207;SHT31;58477;48.072;11.970;2022-12-20T02:05:19;-0.23;94.09
65207;SHT31;58477;48.072;11.970;2022-12-20T02:07:48;-0.16;94.35
65207;SHT31;58477;48.072;11.970;2022-12-20T02:10:16;-0.17;93.72
65207;SHT31;58477;48.072;11.970;2022-12-20T02:12:43;-0.23;94.26
65207;SHT31;58477;48.072;11.970;2022-12-20T02:15:34;-0.26;94.42
65207;SHT31;58477;48.072;11.970;2022-12-20T02:23:53;-0.05;93.77
65207;SHT31;58477;48.072;11.970;2022-12-20T02:29:35;-0.14;93.64
65207;SHT31;58477;48.072;11.970;2022-12-20T02:32:08;-0.23;94.25
65207;SHT31;58477;48.072;11.970;2022-12-20T02:34:38;-0.30;94.74
65207;SHT31;58477;48.072;11.970;2022-12-20T02:37:04;-0.44;95.30
65207;SHT31;58477;48.072;11.970;2022-12-20T02:39:30;-0.41;95.36
65207;SHT31;58477;48.072;11.970;2022-12-20T02:42:05;-0.38;95.37
65207;SHT31;58477;48.072;11.970;2022-12-20T02:44:32;-0.42;95.38
65207;SHT31;58477;48.072;11.970;2022-12-20T02:47:23;-0.40;95.24
65207;SHT31;58477;48.072;11.970;2022-12-20T02:49:52;-0.37;94.87
65207;SHT31;58477;48.072;11.970;2022-12-20T02:52:21;-0.36;94.67
65207;SHT31;58477;48.072;11.970;2022-12-20T02:54:47;-0.40;94.72
65207;SHT31;58477;48.072;11.970;2022-12-20T02:57:18;-0.45;94.92
65207;SHT31;58477;48.072;11.970;2022-12-20T03:00:06;-0.53;95.12
65207;SHT31;58477;48.072;11.970;2022-12-20T03:02:34;-0.45;94.84
65207;SHT31;58477;48.072;11.970;2022-12-20T03:05:22;-0.30;94.28
65207;SHT31;58477;48.072;11.970;2022-12-20T03:07:49;-0.40;95.05
65207;SHT31;58477;48.072;11.970;2022-12-20T03:10:17;-0.47;94.45
65207;SHT31;58477;48.072;11.970;2022-12-20T03:12:43;-0.57;95.27
65207;SHT31;58477;48.072;11.970;2022-12-20T03:15:08;-0.56;95.67
65207;SHT31;58477;48.072;11.970;2022-12-20T03:17:35;-0.51;95.09
65207;SHT31;58477;48.072;11.970;2022-12-20T03:20:01;-0.49;95.51
65207;SHT31;58477;48.072;11.970;2022-12-20T03:22:26;-0.42;95.33
65207;SHT31;58477;48.072;11.970;2022-12-20T03:24:52;-0.47;95.69
65207;SHT31;58477;48.072;11.970;2022-12-20T03:27:17;-0.30;95.37
65207;SHT31;58477;48.072;11.970;2022-12-20T03:29:43;-0.23;94.94
65207;SHT31;58477;48.072;11.970;2022-12-20T03:32:11;-0.20;94.69
65207;SHT31;58477;48.072;11.970;2022-12-20T03:34:38;-0.30;94.83
65207;SHT31;58477;48.072;11.970;2022-12-20T03:37:04;-0.47;95.07
65207;SHT31;58477;48.072;11.970;2022-12-20T03:39:29;-0.57;95.66
65207;SHT31;58477;48.072;11.970;2022-12-20T03:41:55;-0.41;95.71
65207;SHT31;58477;48.072;11.970;2022-12-20T03:44:20;-0.24;95.03
65207;SHT31;58477;48.072;11.970;2022-12-20T03:46:46;-0.34;95.28
65207;SHT31;58477;48.072;11.970;2022-12-20T03:49:11;-0.40;95.57
65207;SHT31;58477;48.072;11.970;2022-12-20T03:51:43;-0.34;95.55
65207;SHT31;58477;48.072;11.970;2022-12-20T03:54:09;-0.42;95.77
65207;SHT31;58477;48.072;11.970;2022-12-20T03:56:55;-0.40;95.77
65207;SHT31;58477;48.072;11.970;2022-12-20T03:59:21;-0.47;95.82
65207;SHT31;58477;48.072;11.970;2022-12-20T04:01:47;-0.40;95.61
65207;SHT31;58477;48.072;11.970;2022-12-20T04:04:14;-0.37;95.50
65207;SHT31;58477;48.072;11.970;2022-12-20T04:06:40;-0.42;95.75
65207;SHT31;58477;48.072;11.970;2022-12-20T04:09:05;-0.33;95.79
65207;SHT31;58477;48.072;11.970;2022-12-20T04:11:39;-0.30;95.75
65207;SHT31;58477;48.072;11.970;2022-12-20T04:14:08;-0.24;95.45
65207;SHT31;58477;48.072;11.970;2022-12-20T04:16:34;-0.29;95.60
65207;SHT31;58477;48.072;11.970;2022-12-20T04:19:01;-0.33;95.72
65207;SHT31;58477;48.072;11.970;2022-12-20T04:21:32;-0.37;95.77
65207;SHT31;58477;48.072;11.970;2022-12-20T04:24:00;-0.38;96.15
65207;SHT31;58477;48.072;11.970;2022-12-20T04:26:36;-0.47;96.17
65207;SHT31;58477;48.072;11.970;2022-12-20T04:29:02;-0.45;96.23
65207;SHT31;58477;48.072;11.970;2022-12-20T04:31:28;-0.47;96.16
65207;SHT31;58477;48.072;11.970;2022-12-20T04:33:54;-0.33;96.34
65207;SHT31;58477;48.072;11.970;2022-12-20T04:36:20;-0.17;94.64
65207;SHT31;58477;48.072;11.970;2022-12-20T04:38:47;-0.14;94.95
65207;SHT31;58477;48.072;11.970;2022-12-20T04:41:13;-0.23;95.41
65207;SHT31;58477;48.072;11.970;2022-12-20T04:43:52;-0.21;95.41
65207;SHT31;58477;48.072;11.970;2022-12-20T04:46:20;-0.03;95.06
65207;SHT31;58477;48.072;11.970;2022-12-20T04:48:46;-0.09;95.12
65207;SHT31;58477;48.072;11.970;2022-12-20T04:51:12;-0.10;95.11
65207;SHT31;58477;48.072;11.970;2022-12-20T04:53:38;-0.19;95.50
65207;SHT31;58477;48.072;11.970;2022-12-20T04:56:27;0.01;95.18
65207;SHT31;58477;48.072;11.970;2022-12-20T04:58:56;-0.21;95.36
65207;SHT31;58477;48.072;11.970;2022-12-20T05:01:23;-0.20;95.83
65207;SHT31;58477;48.072;11.970;2022-12-20T05:03:50;-0.19;95.82
65207;SHT31;58477;48.072;11.970;2022-12-20T05:06:17;-0.05;95.69
65207;SHT31;58477;48.072;11.970;2022-12-20T05:08:42;-0.06;95.62
65207;SHT31;58477;48.072;11.970;2022-12-20T05:11:08;-0.03;95.33
65207;SHT31;58477;48.072;11.970;2022-12-20T05:13:35;0.01;95.28
65207;SHT31;58477;48.072;11.970;2022-12-20T05:16:00;0.10;94.89
65207;SHT31;58477;48.072;11.970;2022-12-20T05:18:30;0.19;94.62
65207;SHT31;58477;48.072;11.970;2022-12-20T05:21:00;0.21;94.80
65207;SHT31;58477;48.072;11.970;2022-12-20T05:23:47;0.15;94.80
65207;SHT31;58477;48.072;11.970;2022-12-20T05:26:44;0.25;94.96
65207;SHT31;58477;48.072;11.970;2022-12-20T05:29:09;0.29;94.90
65207;SHT31;58477;48.072;11.970;2022-12-20T05:31:35;0.28;95.07
65207;SHT31;58477;48.072;11.970;2022-12-20T05:34:01;0.38;94.75
65207;SHT31;58477;48.072;11.970;2022-12-20T05:36:30;0.47;94.22
65207;SHT31;58477;48.072;11.970;2022-12-20T05:38:58;0.49;94.29
65207;SHT31;58477;48.072;11.970;2022-12-20T05:41:24;0.54;94.01
65207;SHT31;58477;48.072;11.970;2022-12-20T05:43:51;0.44;93.96
65207;SHT31;58477;48.072;11.970;2022-12-20T05:46:16;0.44;94.50
65207;SHT31;58477;48.072;11.970;2022-12-20T05:49:02;0.47;94.65
65207;SHT31;58477;48.072;11.970;2022-12-20T05:51:28;0.58;94.19
65207;SHT31;58477;48.072;11.970;2022-12-20T05:54:18;0.55;94.09
65207;SHT31;58477;48.072;11.970;2022-12-20T05:56:52;0.52;94.19
65207;SHT31;58477;48.072;11.970;2022-12-20T05:59:23;0.52;94.42
65207;SHT31;58477;48.072;11.970;2022-12-20T06:01:48;0.58;94.25
65207;SHT31;58477;48.072;11.970;2022-12-20T06:04:14;0.51;93.88
65207;SHT31;58477;48.072;11.970;2022-12-20T06:06:40;0.44;94.33
65207;SHT31;58477;48.072;11.970;2022-12-20T06:09:08;0.42;94.27
65207;SHT31;58477;48.072;11.970;2022-12-20T06:11:48;0.32;95.26
65207;SHT31;58477;48.072;11.970;2022-12-20T06:14:14;0.41;94.90
65207;SHT31;58477;48.072;11.970;2022-12-20T06:16:44;0.66;94.38
65207;SHT31;58477;48.072;11.970;2022-12-20T06:19:10;0.64;93.96
65207;SHT31;58477;48.072;11.970;2022-12-20T06:21:37;0.70;93.78
65207;SHT31;58477;48.072;11.970;2022-12-20T06:24:02;0.61;93.74
65207;SHT31;58477;48.072;11.970;2022-12-20T06:26:28;0.64;93.19
65207;SHT31;58477;48.072;11.970;2022-12-20T06:29:05;0.72;92.75
65207;SHT31;58477;48.072;11.970;2022-12-20T06:31:42;0.69;92.55
65207;SHT31;58477;48.072;11.970;2022-12-20T06:34:07;0.58;93.07
65207;SHT31;58477;48.072;11.970;2022-12-20T06:36:36;0.37;93.62
65207;SHT31;58477;48.072;11.970;2022-12-20T06:39:02;0.48;93.27
65207;SHT31;58477;48.072;11.970;2022-12-20T06:41:28;0.55;92.95
65207;SHT31;58477;48.072;11.970;2022-12-20T06:43:54;0.54;92.90
65207;SHT31;58477;48.072;11.970;2022-12-20T06:46:19;0.55;92.89
65207;SHT31;58477;48.072;11.970;2022-12-20T06:48:45;0.64;92.47
65207;SHT31;58477;48.072;11.970;2022-12-20T06:51:11;0.59;92.56
65207;SHT31;58477;48.072;11.970;2022-12-20T06:53:36;0.62;92.40
65207;SHT31;58477;48.072;11.970;2022-12-20T06:56:03;0.55;92.64
65207;SHT31;58477;48.072;11.970;2022-12-20T06:58:30;0.54;93.17
65207;SHT31;58477;48.072;11.970;2022-12-20T07:00:56;0.57;92.91
65207;SHT31;58477;48.072;11.970;2022-12-20T07:03:21;0.58;92.61
65207;SHT31;58477;48.072;11.970;2022-12-20T07:05:55;0.68;92.67
65207;SHT31;58477;48.072;11.970;2022-12-20T07:08:22;0.73;92.45
65207;SHT31;58477;48.072;11.970;2022-12-20T07:10:47;0.73;92.49
65207;SHT31;58477;48.072;11.970;2022-12-20T07:13:13;0.62;92.85
65207;SHT31;58477;48.072;11.970;2022-12-20T07:15:38;0.55;93.32
65207;SHT31;58477;48.072;11.970;2022-12-20T07:18:04;0.57;93.29
65207;SHT31;58477;48.072;11.970;2022-12-20T07:20:31;0.58;93.27
65207;SHT31;58477;48.072;11.970;2022-12-20T07:22:57;0.70;93.01
65207;SHT31;58477;48.072;11.970;2022-12-20T07:25:22;0.79;92.57
65207;SHT31;58477;48.072;11.970;2022-12-20T07:27:50;0.83;92.40
65207;SHT31;58477;48.072;11.970;2022-12-20T07:30:17;0.92;92.56
65207;SHT31;58477;48.072;11.970;2022-12-20T07:32:43;0.89;92.60
65207;SHT31;58477;48.072;11.970;2022-12-20T07:35:10;0.92;92.37
65207;SHT31;58477;48.072;11.970;2022-12-20T07:37:35;1.00;92.22
65207;SHT31;58477;48.072;11.970;2022-12-20T07:40:01;1.13;92.01
65207;SHT31;58477;48.072;11.970;2022-12-20T07:42:26;1.10;91.77
65207;SHT31;58477;48.072;11.970;2022-12-20T07:44:52;1.15;91.61
65207;SHT31;58477;48.072;11.970;2022-12-20T07:47:18;1.13;91.82
65207;SHT31;58477;48.072;11.970;2022-12-20T07:49:43;1.26;91.43
65207;SHT31;58477;48.072;11.970;2022-12-20T07:52:10;1.40;91.10
65207;SHT31;58477;48.072;11.970;2022-12-20T07:54:42;1.23;91.42
65207;SHT31;58477;48.072;11.970;2022-12-20T07:57:14;1.29;91.39
65207;SHT31;58477;48.072;11.970;2022-12-20T07:59:45;1.33;91.23
65207;SHT31;58477;48.072;11.970;2022-12-20T08:02:16;1.43;90.96
65207;SHT31;58477;48.072;11.970;2022-12-20T08:04:43;1.47;90.82
65207;SHT31;58477;48.072;11.970;2022-12-20T08:07:09;1.36;91.65
65207;SHT31;58477;48.072;11.970;2022-12-20T08:09:39;1.29;91.84
65207;SHT31;58477;48.072;11.970;2022-12-20T08:12:07;1.44;90.48
65207;SHT31;58477;48.072;11.970;2022-12-20T08:14:35;1.57;90.07
65207;SHT31;58477;48.072;11.970;2022-12-20T08:17:01;1.65;89.62
65207;SHT31;58477;48.072;11.970;2022-12-20T08:19:26;1.58;89.51
65207;SHT31;58477;48.072;11.970;2022-12-20T08:21:51;1.65;89.66
65207;SHT31;58477;48.072;11.970;2022-12-20T08:24:17;1.68;89.23
65207;SHT31;58477;48.072;11.970;2022-12-20T08:26:42;1.73;88.86
65207;SHT31;58477;48.072;11.970;2022-12-20T08:29:08;1.84;88.71
65207;SHT31;58477;48.072;11.970;2022-12-20T08:31:40;1.81;88.31
65207;SHT31;58477;48.072;11.970;2022-12-20T08:34:09;1.81;88.77
65207;SHT31;58477;48.072;11.970;2022-12-20T08:36:34;1.74;89.09
65207;SHT31;58477;48.072;11.970;2022-12-20T08:39:04;1.77;88.98
65207;SHT31;58477;48.072;11.970;2022-12-20T08:41:32;1.88;88.38
65207;SHT31;58477;48.072;11.970;2022-12-20T08:43:57;1.95;88.27
65207;SHT31;58477;48.072;11.970;2022-12-20T08:46:23;2.04;87.74
65207;SHT31;58477;48.072;11.970;2022-12-20T08:48:48;2.11;87.63
65207;SHT31;58477;48.072;11.970;2022-12-20T08:51:14;2.12;87.48
65207;SHT31;58477;48.072;11.970;2022-12-20T08:53:39;2.26;87.14
65207;SHT31;58477;48.072;11.970;2022-12-20T08:56:08;2.17;87.71
65207;SHT31;58477;48.072;11.970;2022-12-20T08:58:34;2.17;87.68
65207;SHT31;58477;48.072;11.970;2022-12-20T09:01:01;2.18;87.52
65207;SHT31;58477;48.072;11.970;2022-12-20T09:03:29;2.18;87.64
65207;SHT31;58477;48.072;11.970;2022-12-20T09:05:56;2.04;87.76
65207;SHT31;58477;48.072;11.970;2022-12-20T09:08:22;2.05;87.92
65207;SHT31;58477;48.072;11.970;2022-12-20T09:10:47;2.14;88.00
65207;SHT31;58477;48.072;11.970;2022-12-20T09:13:13;2.15;88.22
65207;SHT31;58477;48.072;11.970;2022-12-20T09:15:38;2.14;88.20
65207;SHT31;58477;48.072;11.970;2022-12-20T09:18:04;2.29;88.04
65207;SHT31;58477;48.072;11.970;2022-12-20T09:20:30;2.50;86.79
65207;SHT31;58477;48.072;11.970;2022-12-20T09:22:57;2.53;86.54
65207;SHT31;58477;48.072;11.970;2022-12-20T09:25:22;2.53;86.35
65207;SHT31;58477;48.072;11.970;2022-12-20T09:27:49;2.62;85.70
65207;SHT31;58477;48.072;11.970;2022-12-20T09:30:15;2.76;85.58
65207;SHT31;58477;48.072;11.970;2022-12-20T09:32:40;2.77;85.67
65207;SHT31;58477;48.072;11.970;2022-12-20T09:35:06;3.00;85.07
65207;SHT31;58477;48.072;11.970;2022-12-20T09:37:32;2.67;86.46
65207;SHT31;58477;48.072;11.970;2022-12-20T09:39:57;3.00;84.46
65207;SHT31;58477;48.072;11.970;2022-12-20T09:42:27;3.31;84.08
65207;SHT31;58477;48.072;11.970;2022-12-20T09:45:00;3.18;84.24
65207;SHT31;58477;48.072;11.970;2022-12-20T09:47:26;3.34;83.80
65207;SHT31;58477;48.072;11.970;2022-12-20T09:49:54;3.32;83.77
65207;SHT31;58477;48.072;11.970;2022-12-20T09:57:57;3.54;82.73
65207;SHT31;58477;48.072;11.970;2022-12-20T10:00:27;3.65;82.96
65207;SHT31;58477;48.072;11.970;2022-12-20T10:02:54;3.41;83.34
65207;SHT31;58477;48.072;11.970;2022-12-20T10:05:41;3.35;83.28
65207;SHT31;58477;48.072;11.970;2022-12-20T10:08:19;3.20;83.96
65207;SHT31;58477;48.072;11.970;2022-12-20T10:10:56;3.11;84.13
65207;SHT31;58477;48.072;11.970;2022-12-20T10:16:27;3.23;84.62
65207;SHT31;58477;48.072;11.970;2022-12-20T10:24:18;3.85;82.51
65207;SHT31;58477;48.072;11.970;2022-12-20T10:26:46;3.89;81.40
65207;SHT31;58477;48.072;11.970;2022-12-20T10:29:13;4.20;81.30
65207;SHT31;58477;48.072;11.970;2022-12-20T10:31:39;4.45;80.73
65207;SHT31;58477;48.072;11.970;2022-12-20T10:34:05;4.71;79.22
65207;SHT31;58477;48.072;11.970;2022-12-20T10:36:33;4.77;79.51
65207;SHT31;58477;48.072;11.970;2022-12-20T10:39:02;4.91;78.77
65207;SHT31;58477;48.072;11.970;2022-12-20T10:41:45;4.77;78.97
65207;SHT31;58477;48.072;11.970;2022-12-20T10:44:24;4.69;78.85
65207;SHT31;58477;48.072;11.970;2022-12-20T10:46:56;5.18;77.94
65207;SHT31;58477;48.072;11.970;2022-12-20T10:49:31;5.27;77.90
65207;SHT31;58477;48.072;11.970;2022-12-20T10:52:12;5.70;77.60
65207;SHT31;58477;48.072;11.970;2022-12-20T10:54:43;5.56;76.24
65207;SHT31;58477;48.072;11.970;2022-12-20T10:57:21;5.90;76.31
65207;SHT31;58477;48.072;11.970;2022-12-20T10:59:51;5.59;75.79
65207;SHT31;58477;48.072;11.970;2022-12-20T11:02:30;4.63;79.54
65207;SHT31;58477;48.072;11.970;2022-12-20T11:05:22;4.80;79.95
65207;SHT31;58477;48.072;11.970;2022-12-20T11:08:08;3.78;82.72
65207;SHT31;58477;48.072;11.970;2022-12-20T11:10:36;4.36;81.13
65207;SHT31;58477;48.072;11.970;2022-12-20T11:13:02;4.43;81.62
65207;SHT31;58477;48.072;11.970;2022-12-20T11:15:31;4.67;80.70
65207;SHT31;58477;48.072;11.970;2022-12-20T11:20:50;4.91;79.99
65207;SHT31;58477;48.072;11.970;2022-12-20T11:23:26;4.19;81.47
65207;SHT31;58477;48.072;11.970;2022-12-20T11:29:20;4.33;81.69
65207;SHT31;58477;48.072;11.970;2022-12-20T11:35:08;4.32;81.53
65207;SHT31;58477;48.072;11.970;2022-12-20T11:37:44;4.43;81.60
65207;SHT31;58477;48.072;11.970;2022-12-20T11:40:28;4.13;82.93
65207;SHT31;58477;48.072;11.970;2022-12-20T11:48:56;4.46;82.13
65207;SHT31;58477;48.072;11.970;2022-12-20T11:51:45;4.23;82.94
65207;SHT31;58477;48.072;11.970;2022-12-20T11:54:13;4.32;82.89
65207;SHT31;58477;48.072;11.970;2022-12-20T11:56:40;4.67;82.26
65207;SHT31;58477;48.072;11.970;2022-12-20T12:02:13;4.97;80.58
65207;SHT31;58477;48.072;11.970;2022-12-20T12:04:50;5.12;81.33
65207;SHT31;58477;48.072;11.970;2022-12-20T12:07:24;5.12;80.25
65207;SHT31;58477;48.072;11.970;2022-12-20T12:12:28;5.14;79.75
65207;SHT31;58477;48.072;11.970;2022-12-20T12:17:44;4.56;81.50
65207;SHT31;58477;48.072;11.970;2022-12-20T12:22:46;4.67;81.24
65207;SHT31;58477;48.072;11.970;2022-12-20T12:25:16;4.28;82.63
65207;SHT31;58477;48.072;11.970;2022-12-20T12:27:42;4.36;83.26
65207;SHT31;58477;48.072;11.970;2022-12-20T12:30:14;3.82;83.99
65207;SHT31;58477;48.072;11.970;2022-12-20T12:41:21;3.98;84.45
65207;SHT31;58477;48.072;11.970;2022-12-20T12:43:56;3.98;84.58
65207;SHT31;58477;48.072;11.970;2022-12-20T12:46:27;4.09;83.45
65207;SHT31;58477;48.072;11.970;2022-12-20T12:51:31;4.05;83.50
65207;SHT31;58477;48.072;11.970;2022-12-20T12:56:38;4.06;83.06
65207;SHT31;58477;48.072;11.970;2022-12-20T13:01:47;4.28;82.40
65207;SHT31;58477;48.072;11.970;2022-12-20T13:04:23;4.13;83.60
65207;SHT31;58477;48.072;11.970;2022-12-20T13:11:50;4.22;82.93
65207;SHT31;58477;48.072;11.970;2022-12-20T13:16:41;4.07;83.48
65207;SHT31;58477;48.072;11.970;2022-12-20T13:21:58;3.78;85.00
65207;SHT31;58477;48.072;11.970;2022-12-20T13:25:18;3.54;86.20
65207;SHT31;58477;48.072;11.970;2022-12-20T13:27:49;3.64;85.27
65207;SHT31;58477;48.072;11.970;2022-12-20T13:41:01;3.78;83.75
65207;SHT31;58477;48.072;11.970;2022-12-20T13:43:40;3.58;85.04
65207;SHT31;58477;48.072;11.970;2022-12-20T13:51:03;3.71;84.60
65207;SHT31;58477;48.072;11.970;2022-12-20T13:53:29;3.67;84.62
65207;SHT31;58477;48.072;11.970;2022-12-20T13:55:56;3.64;85.57
65207;SHT31;58477;48.072;11.970;2022-12-20T13:58:25;3.51;84.79
65207;SHT31;58477;48.072;11.970;2022-12-20T14:00:52;3.51;84.84
65207;SHT31;58477;48.072;11.970;2022-12-20T14:03:26;3.52;84.60
65207;SHT31;58477;48.072;11.970;2022-12-20T14:06:01;3.24;86.44
65207;SHT31;58477;48.072;11.970;2022-12-20T14:08:35;3.10;86.91
65207;SHT31;58477;48.072;11.970;2022-12-20T14:11:16;3.03;87.51
65207;SHT31;58477;48.072;11.970;2022-12-20T14:14:01;2.92;88.39
65207;SHT31;58477;48.072;11.970;2022-12-20T14:16:29;3.06;87.07
65207;SHT31;58477;48.072;11.970;2022-12-20T14:21:21;3.20;86.14
65207;SHT31;58477;48.072;11.970;2022-12-20T14:23:49;3.27;85.51
65207;SHT31;58477;48.072;11.970;2022-12-20T14:26:18;3.23;86.88
65207;SHT31;58477;48.072;11.970;2022-12-20T14:28:47;3.16;87.57
65207;SHT31;58477;48.072;11.970;2022-12-20T14:31:33;3.27;87.06
65207;SHT31;58477;48.072;11.970;2022-12-20T14:36:34;3.42;86.41
65207;SHT31;58477;48.072;11.970;2022-12-20T14:39:00;3.34;86.87
65207;SHT31;58477;48.072;11.970;2022-12-20T14:46:33;3.85;85.85
65207;SHT31;58477;48.072;11.970;2022-12-20T14:51:45;3.51;88.30
65207;SHT31;58477;48.072;11.970;2022-12-20T14:54:16;3.31;89.10
65207;SHT31;58477;48.072;11.970;2022-12-20T14:56:46;3.14;89.11
65207;SHT31;58477;48.072;11.970;2022-12-20T14:59:19;2.89;89.65
65207;SHT31;58477;48.072;11.970;2022-12-20T15:01:49;2.60;90.76
65207;SHT31;58477;48.072;11.970;2022-12-20T15:04:31;1.99;94.01
65207;SHT31;58477;48.072;11.970;2022-12-20T15:06:57;1.89;94.43
65207;SHT31;58477;48.072;11.970;2022-12-20T15:09:23;2.05;93.58
65207;SHT31;58477;48.072;11.970;2022-12-20T15:11:49;1.89;94.79
65207;SHT31;58477;48.072;11.970;2022-12-20T15:14:32;1.95;94.30
65207;SHT31;58477;48.072;11.970;2022-12-20T15:17:12;1.87;94.29
65207;SHT31;58477;48.072;11.970;2022-12-20T15:19:39;1.67;94.91
65207;SHT31;58477;48.072;11.970;2022-12-20T15:22:04;1.54;95.16
65207;SHT31;58477;48.072;11.970;2022-12-20T15:24:31;1.51;95.46
65207;SHT31;58477;48.072;11.970;2022-12-20T15:26:56;1.51;95.93
65207;SHT31;58477;48.072;11.970;2022-12-20T15:29:26;1.64;95.60
65207;SHT31;58477;48.072;11.970;2022-12-20T15:32:06;1.78;95.11
65207;SHT31;58477;48.072;11.970;2022-12-20T15:34:36;1.68;94.84
65207;SHT31;58477;48.072;11.970;2022-12-20T15:37:02;1.60;95.82
65207;SHT31;58477;48.072;11.970;2022-12-20T15:39:29;1.53;95.84
65207;SHT31;58477;48.072;11.970;2022-12-20T15:41:57;1.58;95.57
65207;SHT31;58477;48.072;11.970;2022-12-20T15:44:25;1.68;95.07
65207;SHT31;58477;48.072;11.970;2022-12-20T15:46:51;1.95;94.65
65207;SHT31;58477;48.072;11.970;2022-12-20T15:49:20;2.14;94.03
65207;SHT31;58477;48.072;11.970;2022-12-20T15:51:47;2.08;94.04
65207;SHT31;58477;48.072;11.970;2022-12-20T15:54:25;2.02;93.97
65207;SHT31;58477;48.072;11.970;2022-12-20T15:56:55;1.81;94.99
65207;SHT31;58477;48.072;11.970;2022-12-20T15:59:21;1.79;95.32
65207;SHT31;58477;48.072;11.970;2022-12-20T16:01:47;2.02;93.88
65207;SHT31;58477;48.072;11.970;2022-12-20T16:04:17;1.93;94.23
65207;SHT31;58477;48.072;11.970;2022-12-20T16:06:45;1.93;94.18
65207;SHT31;58477;48.072;11.970;2022-12-20T16:09:11;1.79;94.54
65207;SHT31;58477;48.072;11.970;2022-12-20T16:11:37;1.70;94.79
65207;SHT31;58477;48.072;11.970;2022-12-20T16:14:02;1.65;95.07
65207;SHT31;58477;48.072;11.970;2022-12-20T16:16:31;1.68;94.98
65207;SHT31;58477;48.072;11.970;2022-12-20T16:18:57;1.75;94.89
65207;SHT31;58477;48.072;11.970;2022-12-20T16:21:25;1.71;94.22
65207;SHT31;58477;48.072;11.970;2022-12-20T16:23:51;1.53;95.62
65207;SHT31;58477;48.072;11.970;2022-12-20T16:26:19;1.50;95.75
65207;SHT31;58477;48.072;11.970;2022-12-20T16:28:46;1.53;95.41
65207;SHT31;58477;48.072;11.970;2022-12-20T16:31:32;1.63;95.35
65207;SHT31;58477;48.072;11.970;2022-12-20T16:34:24;1.71;95.49
65207;SHT31;58477;48.072;11.970;2022-12-20T16:36:50;1.68;95.59
65207;SHT31;58477;48.072;11.970;2022-12-20T16:39:16;1.77;94.84
65207;SHT31;58477;48.072;11.970;2022-12-20T16:41:42;1.64;95.84
65207;SHT31;58477;48.072;11.970;2022-12-20T16:44:15;1.73;95.30
65207;SHT31;58477;48.072;11.970;2022-12-20T16:46:40;2.02;94.55
65207;SHT31;58477;48.072;11.970;2022-12-20T16:49:08;2.18;93.74
65207;SHT31;58477;48.072;11.970;2022-12-20T16:51:39;2.28;92.80
65207;SHT31;58477;48.072;11.970;2022-12-20T16:54:18;2.33;92.91
65207;SHT31;58477;48.072;11.970;2022-12-20T16:56:44;2.32;92.48
65207;SHT31;58477;48.072;11.970;2022-12-20T16:59:12;2.02;93.26
65207;SHT31;58477;48.072;11.970;2022-12-20T17:01:38;1.89;93.78
65207;SHT31;58477;48.072;11.970;2022-12-20T17:04:09;2.12;93.80
65207;SHT31;58477;48.072;11.970;2022-12-20T17:06:37;2.31;92.83
65207;SHT31;58477;48.072;11.970;2022-12-20T17:09:02;2.28;92.61
65207;SHT31;58477;48.072;11.970;2022-12-20T17:11:29;1.97;93.80
65207;SHT31;58477;48.072;11.970;2022-12-20T17:13:59;2.02;93.69
65207;SHT31;58477;48.072;11.970;2022-12-20T17:16:25;2.04;93.51
65207;SHT31;58477;48.072;11.970;2022-12-20T17:18:53;2.01;93.42
65207;SHT31;58477;48.072;11.970;2022-12-20T17:23:53;1.87;94.45
65207;SHT31;58477;48.072;11.970;2022-12-20T17:26:24;2.07;93.90
65207;SHT31;58477;48.072;11.970;2022-12-20T17:28:51;2.04;93.40
65207;SHT31;58477;48.072;11.970;2022-12-20T17:31:37;1.93;93.64